createdAt,value
2022-12-16T00:01:28.507Z,76.35
2022-12-16T00:03:58.093Z,76.77
2022-12-16T00:06:29.620Z,76.95
2022-12-16T00:08:56.873Z,76.51
2022-12-16T00:11:23.848Z,76.62
2022-12-16T00:13:50.950Z,76.60
2022-12-16T00:16:21.103Z,76.48
2022-12-16T00:18:48.230Z,76.54
2022-12-16T00:21:15.392Z,76.37
2022-12-16T00:23:42.185Z,76.79
2022-12-16T00:26:09.361Z,77.07
2022-12-16T00:28:36.746Z,76.78
2022-12-16T00:31:04.484Z,76.43
2022-12-16T00:33:32.235Z,76.36
2022-12-16T00:35:59.267Z,76.71
2022-12-16T00:38:26.897Z,76.72
2022-12-16T00:40:53.820Z,77.10
2022-12-16T00:43:20.934Z,77.06
2022-12-16T00:45:48.837Z,77.02
2022-12-16T00:48:16.803Z,76.71
2022-12-16T00:50:55.238Z,77.05
2022-12-16T00:53:24.628Z,77.04
2022-12-16T00:55:53.019Z,76.78
2022-12-16T00:58:20.533Z,76.28
2022-12-16T01:00:47.376Z,76.39
2022-12-16T01:03:19.401Z,76.71
2022-12-16T01:05:48.153Z,76.90
2022-12-16T01:08:14.967Z,76.52
2022-12-16T01:10:41.735Z,76.31
2022-12-16T01:13:08.530Z,76.36
2022-12-16T01:15:37.587Z,76.30
2022-12-16T01:18:04.929Z,76.22
2022-12-16T01:20:34.362Z,76.22
2022-12-16T01:23:01.174Z,76.33
2022-12-16T01:25:28.339Z,75.79
2022-12-16T01:27:55.149Z,75.67
2022-12-16T01:30:22.205Z,75.40
2022-12-16T01:32:49.008Z,75.46
2022-12-16T01:35:44.202Z,75.46
2022-12-16T01:38:02.685Z,75.57
2022-12-16T01:40:30.163Z,75.39
2022-12-16T01:42:56.948Z,75.31
2022-12-16T01:45:35.950Z,75.03
2022-12-16T01:48:38.687Z,75.33
2022-12-16T01:51:16.214Z,75.17
2022-12-16T01:53:44.639Z,75.25
2022-12-16T01:56:15.543Z,74.83
2022-12-16T01:58:44.357Z,75.00
2022-12-16T02:01:11.192Z,74.95
2022-12-16T02:03:39.679Z,74.63
2022-12-16T02:06:07.143Z,74.73
2022-12-16T02:08:34.313Z,74.65
2022-12-16T02:11:11.958Z,74.96
2022-12-16T02:14:26.265Z,74.24
2022-12-16T02:17:22.358Z,74.88
2022-12-16T02:20:21.726Z,74.49
2022-12-16T02:23:33.371Z,74.79
2022-12-16T02:26:52.324Z,74.46
2022-12-16T02:29:37.113Z,74.36
2022-12-16T02:32:16.870Z,74.67
2022-12-16T02:35:15.199Z,74.36
2022-12-16T02:37:56.918Z,74.42
2022-12-16T02:40:44.249Z,74.47
2022-12-16T02:43:48.950Z,74.09
2022-12-16T02:46:17.618Z,74.47
2022-12-16T02:48:44.422Z,74.31
2022-12-16T02:51:11.471Z,74.45
2022-12-16T02:53:41.335Z,74.44
2022-12-16T02:56:27.485Z,74.21
2022-12-16T02:59:42.230Z,73.90
2022-12-16T03:02:25.835Z,74.23
2022-12-16T03:05:04.429Z,74.28
2022-12-16T03:07:36.435Z,74.03
2022-12-16T03:10:06.997Z,74.53
2022-12-16T03:12:38.199Z,74.10
2022-12-16T03:15:07.692Z,74.14
2022-12-16T03:17:37.235Z,74.20
2022-12-16T03:20:14.215Z,74.10
2022-12-16T03:22:44.691Z,73.80
2022-12-16T03:25:11.877Z,73.76
2022-12-16T03:28:07.645Z,73.78
2022-12-16T03:30:41.883Z,73.71
2022-12-16T03:33:17.536Z,74.45
2022-12-16T03:36:11.037Z,74.15
2022-12-16T03:38:39.517Z,73.99
2022-12-16T03:41:07.964Z,74.31
2022-12-16T03:43:35.320Z,73.91
2022-12-16T03:46:06.636Z,74.02
2022-12-16T03:48:34.034Z,73.99
2022-12-16T03:51:01.234Z,73.70
2022-12-16T03:53:28.101Z,74.06
2022-12-16T03:55:55.269Z,73.81
2022-12-16T03:58:22.049Z,74.19
2022-12-16T04:00:48.940Z,73.92
2022-12-16T04:03:15.905Z,74.03
2022-12-16T04:05:42.847Z,74.08
2022-12-16T04:08:09.645Z,74.12
2022-12-16T04:10:54.837Z,73.95
2022-12-16T04:13:40.185Z,74.36
2022-12-16T04:16:31.617Z,73.87
2022-12-16T04:19:17.317Z,73.84
2022-12-16T04:22:02.802Z,73.99
2022-12-16T04:24:30.640Z,73.73
2022-12-16T04:27:16.240Z,73.37
2022-12-16T04:30:02.452Z,73.52
2022-12-16T04:32:53.050Z,73.47
2022-12-16T04:35:38.603Z,73.48
2022-12-16T04:38:24.202Z,73.39
2022-12-16T04:41:09.757Z,73.42
2022-12-16T04:43:55.314Z,73.41
2022-12-16T04:46:40.653Z,73.57
2022-12-16T04:49:26.118Z,73.44
2022-12-16T04:52:12.041Z,73.67
2022-12-16T04:54:57.402Z,73.38
2022-12-16T04:57:42.887Z,73.92
2022-12-16T05:00:29.390Z,73.80
2022-12-16T05:03:15.971Z,74.06
2022-12-16T05:06:01.384Z,74.21
2022-12-16T05:08:46.890Z,74.29
2022-12-16T05:11:32.410Z,73.81
2022-12-16T05:14:17.671Z,74.50
2022-12-16T05:17:03.133Z,74.22
2022-12-16T05:19:48.462Z,74.11
2022-12-16T05:22:33.899Z,74.07
2022-12-16T05:25:19.288Z,74.21
2022-12-16T05:28:10.181Z,74.69
2022-12-16T05:30:55.826Z,74.59
2022-12-16T05:33:41.995Z,74.88
2022-12-16T05:36:27.856Z,74.74
2022-12-16T05:39:13.320Z,74.42
2022-12-16T05:41:58.662Z,74.45
2022-12-16T05:44:44.221Z,74.61
2022-12-16T05:47:29.873Z,74.53
2022-12-16T05:50:15.281Z,74.74
2022-12-16T05:53:07.587Z,74.33
2022-12-16T05:55:53.090Z,74.59
2022-12-16T05:58:38.606Z,74.50
2022-12-16T06:01:24.526Z,74.24
2022-12-16T06:04:15.541Z,75.13
2022-12-16T06:07:03.180Z,74.68
2022-12-16T06:09:53.110Z,75.07
2022-12-16T06:12:42.204Z,75.03
2022-12-16T06:15:28.679Z,75.26
2022-12-16T06:18:14.587Z,75.00
2022-12-16T06:20:59.941Z,74.97
2022-12-16T06:23:45.554Z,75.16
2022-12-16T06:26:31.084Z,74.92
2022-12-16T06:29:16.380Z,74.86
2022-12-16T06:32:02.045Z,74.95
2022-12-16T06:34:47.486Z,74.56
2022-12-16T06:37:32.729Z,74.85
2022-12-16T06:40:31.825Z,74.76
2022-12-16T06:43:17.252Z,74.38
2022-12-16T06:46:03.013Z,74.15
2022-12-16T06:48:48.486Z,73.96
2022-12-16T06:51:34.030Z,74.05
2022-12-16T06:54:19.440Z,74.47
2022-12-16T06:57:04.789Z,74.70
2022-12-16T06:59:50.205Z,74.71
2022-12-16T07:02:35.722Z,74.52
2022-12-16T07:05:21.877Z,74.56
2022-12-16T07:08:09.536Z,74.67
2022-12-16T07:10:59.513Z,74.38
2022-12-16T07:13:54.699Z,74.30
2022-12-16T07:16:40.204Z,74.74
2022-12-16T07:19:25.506Z,74.70
2022-12-16T07:22:10.890Z,74.03
2022-12-16T07:24:56.215Z,74.01
2022-12-16T07:27:41.514Z,74.06
2022-12-16T07:30:27.290Z,73.84
2022-12-16T07:33:17.221Z,73.65
2022-12-16T07:36:02.693Z,74.00
2022-12-16T07:38:48.030Z,73.45
2022-12-16T07:41:33.526Z,73.06
2022-12-16T07:44:18.840Z,73.25
2022-12-16T07:47:04.245Z,72.95
2022-12-16T07:49:49.559Z,73.11
2022-12-16T07:52:35.036Z,72.85
2022-12-16T07:55:20.577Z,72.74
2022-12-16T07:58:11.500Z,72.33
2022-12-16T08:00:57.030Z,72.27
2022-12-16T08:04:02.310Z,72.42
2022-12-16T08:06:48.046Z,72.10
2022-12-16T08:09:33.051Z,72.24
2022-12-16T08:12:18.417Z,73.49
2022-12-16T08:15:03.715Z,73.38
2022-12-16T08:17:49.315Z,73.52
2022-12-16T08:20:34.586Z,73.10
2022-12-16T08:23:19.741Z,72.61
2022-12-16T08:26:04.993Z,72.39
2022-12-16T08:28:50.339Z,72.41
2022-12-16T08:31:35.701Z,71.91
2022-12-16T08:34:21.286Z,72.45
2022-12-16T08:37:06.360Z,72.36
2022-12-16T08:40:17.703Z,72.61
2022-12-16T08:42:57.476Z,72.28
2022-12-16T08:45:43.437Z,72.28
2022-12-16T08:48:29.678Z,71.55
2022-12-16T08:51:20.068Z,71.84
2022-12-16T08:54:05.489Z,72.31
2022-12-16T08:56:51.471Z,72.14
2022-12-16T08:59:36.834Z,71.71
2022-12-16T09:02:22.979Z,71.83
2022-12-16T09:05:08.919Z,72.14
2022-12-16T09:07:54.391Z,72.28
2022-12-16T09:10:40.989Z,71.57
2022-12-16T09:13:30.398Z,71.55
2022-12-16T09:16:19.510Z,70.96
2022-12-16T09:19:05.619Z,71.48
2022-12-16T09:21:52.001Z,71.69
2022-12-16T09:24:37.377Z,70.04
2022-12-16T09:27:22.888Z,70.51
2022-12-16T09:30:08.441Z,70.25
2022-12-16T09:32:54.215Z,71.06
2022-12-16T09:35:39.559Z,71.31
2022-12-16T09:38:25.096Z,70.92
2022-12-16T09:41:10.601Z,70.48
2022-12-16T09:44:20.201Z,71.05
2022-12-16T09:47:44.468Z,70.04
2022-12-16T09:50:43.999Z,69.71
2022-12-16T09:53:33.695Z,69.58
2022-12-16T09:56:24.692Z,69.14
2022-12-16T09:59:19.513Z,69.51
2022-12-16T10:02:05.364Z,69.02
2022-12-16T10:04:51.111Z,69.60
2022-12-16T10:07:41.532Z,69.47
2022-12-16T10:11:01.527Z,69.69
2022-12-16T10:14:14.484Z,70.08
2022-12-16T10:17:45.861Z,70.07
2022-12-16T10:20:57.039Z,69.58
2022-12-16T10:24:03.504Z,69.46
2022-12-16T10:27:12.319Z,67.48
2022-12-16T10:30:02.147Z,67.83
2022-12-16T10:33:01.753Z,68.15
2022-12-16T10:35:55.637Z,67.87
2022-12-16T10:38:56.119Z,68.89
2022-12-16T10:41:52.541Z,67.97
2022-12-16T10:45:12.504Z,67.75
2022-12-16T10:47:57.896Z,67.30
2022-12-16T10:50:43.566Z,67.52
2022-12-16T10:53:50.905Z,68.17
2022-12-16T10:57:10.479Z,68.29
2022-12-16T10:59:59.286Z,67.35
2022-12-16T11:02:47.559Z,67.05
2022-12-16T11:05:52.054Z,67.67
2022-12-16T11:08:51.397Z,68.18
2022-12-16T11:11:42.743Z,66.91
2022-12-16T11:15:05.829Z,67.77
2022-12-16T11:17:48.600Z,67.07
2022-12-16T11:20:40.750Z,67.76
2022-12-16T11:23:38.844Z,68.01
2022-12-16T11:26:38.547Z,67.70
2022-12-16T11:29:35.133Z,66.66
2022-12-16T11:32:37.607Z,67.30
2022-12-16T11:35:31.153Z,66.93
2022-12-16T11:38:17.577Z,66.02
2022-12-16T11:41:02.615Z,66.32
2022-12-16T11:43:48.865Z,66.20
2022-12-16T11:46:55.918Z,67.70
2022-12-16T11:49:52.031Z,66.97
2022-12-16T11:52:40.489Z,66.82
2022-12-16T11:59:06.730Z,68.12
2022-12-16T12:01:59.881Z,68.82
2022-12-16T12:04:45.323Z,68.23
2022-12-16T12:07:55.455Z,66.81
2022-12-16T12:11:04.095Z,67.76
2022-12-16T12:14:37.441Z,67.46
2022-12-16T12:17:45.039Z,67.07
2022-12-16T12:21:18.246Z,67.23
2022-12-16T12:24:44.858Z,68.04
2022-12-16T12:27:49.708Z,67.35
2022-12-16T12:30:38.776Z,68.24
2022-12-16T12:34:09.617Z,68.88
2022-12-16T12:37:08.102Z,68.23
2022-12-16T12:40:13.022Z,67.83
2022-12-16T12:43:06.778Z,68.10
2022-12-16T12:46:16.333Z,68.46
2022-12-16T12:49:35.192Z,67.61
2022-12-16T12:52:37.927Z,68.70
2022-12-16T12:55:44.348Z,68.30
2022-12-16T12:58:31.723Z,68.62
2022-12-16T13:01:19.157Z,68.90
2022-12-16T13:04:18.976Z,68.22
2022-12-16T13:07:04.998Z,68.54
2022-12-16T13:09:57.917Z,68.06
2022-12-16T13:12:46.357Z,68.39
2022-12-16T13:15:58.136Z,68.25
2022-12-16T13:18:48.499Z,67.82
2022-12-16T13:22:02.380Z,68.95
2022-12-16T13:25:10.173Z,69.42
2022-12-16T13:28:34.135Z,70.53
2022-12-16T13:31:25.942Z,69.58
2022-12-16T13:34:13.957Z,69.44
2022-12-16T13:37:00.500Z,70.04
2022-12-16T13:39:48.930Z,69.79
2022-12-16T13:42:58.835Z,70.31
2022-12-16T13:45:57.611Z,70.35
2022-12-16T13:48:59.443Z,70.99
2022-12-16T13:51:56.218Z,70.95
2022-12-16T13:54:51.923Z,71.44
2022-12-16T13:57:41.010Z,71.72
2022-12-16T14:00:42.796Z,71.83
2022-12-16T14:04:06.522Z,71.67
2022-12-16T14:06:56.799Z,70.92
2022-12-16T14:09:57.209Z,71.62
2022-12-16T14:13:16.133Z,71.21
2022-12-16T14:16:58.859Z,71.96
2022-12-16T14:20:13.439Z,71.68
2022-12-16T14:23:39.290Z,72.15
2022-12-16T14:26:29.913Z,71.96
2022-12-16T14:29:15.028Z,72.09
2022-12-16T14:32:02.657Z,72.57
2022-12-16T14:34:51.985Z,72.43
2022-12-16T14:37:53.776Z,72.13
2022-12-16T14:40:49.233Z,72.38
2022-12-16T14:43:43.610Z,71.97
2022-12-16T14:46:49.734Z,72.29
2022-12-16T14:49:41.616Z,71.51
2022-12-16T14:52:44.005Z,71.53
2022-12-16T14:55:33.335Z,72.02
2022-12-16T14:58:41.124Z,71.73
2022-12-16T15:01:43.907Z,72.70
2022-12-16T15:04:39.910Z,72.31
2022-12-16T15:07:47.869Z,73.02
2022-12-16T15:10:34.221Z,72.80
2022-12-16T15:13:19.862Z,73.20
2022-12-16T15:16:07.352Z,73.48
2022-12-16T15:19:04.540Z,73.81
2022-12-16T15:21:53.296Z,74.04
2022-12-16T15:24:43.262Z,74.30
2022-12-16T15:27:32.549Z,74.27
2022-12-16T15:30:17.977Z,74.15
2022-12-16T15:33:12.245Z,74.76
2022-12-16T15:35:57.897Z,74.56
2022-12-16T15:38:50.357Z,74.58
2022-12-16T15:41:49.638Z,74.17
2022-12-16T15:44:43.946Z,74.78
2022-12-16T15:47:54.661Z,75.17
2022-12-16T15:50:46.590Z,74.77
2022-12-16T15:53:54.721Z,75.07
2022-12-16T15:56:44.417Z,74.73
2022-12-16T15:59:56.899Z,75.09
2022-12-16T16:02:48.723Z,74.69
2022-12-16T16:05:41.248Z,75.14
2022-12-16T16:08:29.178Z,75.18
2022-12-16T16:11:14.665Z,75.42
2022-12-16T16:14:05.996Z,75.50
2022-12-16T16:16:54.915Z,75.18
2022-12-16T16:19:43.704Z,75.24
2022-12-16T16:22:43.425Z,75.10
2022-12-16T16:25:31.034Z,75.31
2022-12-16T16:28:16.386Z,75.01
2022-12-16T16:31:01.932Z,74.94
2022-12-16T16:33:57.740Z,74.56
2022-12-16T16:36:43.188Z,74.63
2022-12-16T16:39:28.669Z,74.51
2022-12-16T16:42:14.296Z,74.65
2022-12-16T16:44:59.751Z,74.42
2022-12-16T16:47:45.065Z,75.06
2022-12-16T16:50:34.124Z,74.86
2022-12-16T16:53:19.648Z,75.22
2022-12-16T16:56:05.107Z,75.17
2022-12-16T16:58:52.958Z,74.57
2022-12-16T17:01:38.960Z,75.07
2022-12-16T17:04:24.268Z,74.69
2022-12-16T17:07:09.633Z,75.08
2022-12-16T17:09:54.921Z,75.02
2022-12-16T17:12:45.535Z,74.63
2022-12-16T17:15:44.044Z,74.58
2022-12-16T17:18:29.446Z,75.14
2022-12-16T17:21:14.840Z,75.14
2022-12-16T17:24:00.222Z,74.40
2022-12-16T17:26:45.699Z,74.46
2022-12-16T17:29:43.306Z,74.49
2022-12-16T17:32:29.814Z,75.07
2022-12-16T17:35:15.887Z,74.46
2022-12-16T17:38:01.640Z,73.97
2022-12-16T17:40:47.122Z,74.48
2022-12-16T17:43:33.075Z,74.29
2022-12-16T17:46:24.839Z,74.21
2022-12-16T17:49:12.222Z,74.22
2022-12-16T17:51:57.732Z,74.26
2022-12-16T17:54:43.028Z,74.40
2022-12-16T17:57:29.229Z,74.12
2022-12-16T18:00:14.738Z,73.94
2022-12-16T18:03:00.851Z,74.38
2022-12-16T18:05:46.741Z,74.40
2022-12-16T18:08:32.690Z,74.43
2022-12-16T18:11:18.132Z,74.21
2022-12-16T18:14:03.645Z,74.47
2022-12-16T18:16:49.493Z,74.50
2022-12-16T18:19:36.186Z,74.43
2022-12-16T18:22:22.584Z,74.18
2022-12-16T18:25:08.069Z,74.06
2022-12-16T18:27:55.579Z,73.85
2022-12-16T18:30:40.963Z,73.65
2022-12-16T18:33:27.784Z,74.39
2022-12-16T18:36:13.622Z,74.53
2022-12-16T18:38:58.980Z,74.17
2022-12-16T18:41:44.809Z,74.29
2022-12-16T18:44:33.316Z,74.13
2022-12-16T18:47:19.312Z,74.46
2022-12-16T18:50:05.072Z,74.64
2022-12-16T18:52:50.437Z,74.19
2022-12-16T18:55:35.918Z,74.16
2022-12-16T18:58:49.830Z,74.13
2022-12-16T19:01:30.002Z,74.23
2022-12-16T19:04:16.429Z,74.49
2022-12-16T19:07:02.032Z,74.51
2022-12-16T19:09:47.472Z,74.34
2022-12-16T19:12:32.953Z,74.13
2022-12-16T19:15:18.402Z,73.88
2022-12-16T19:18:03.748Z,74.31
2022-12-16T19:20:49.058Z,74.14
2022-12-16T19:23:34.981Z,74.37
2022-12-16T19:26:20.427Z,74.27
2022-12-16T19:29:05.890Z,74.06
2022-12-16T19:31:51.883Z,73.99
2022-12-16T19:34:37.205Z,74.03
2022-12-16T19:37:22.727Z,74.06
2022-12-16T19:40:08.186Z,73.80
2022-12-16T19:42:54.607Z,73.38
2022-12-16T19:45:41.170Z,73.23
2022-12-16T19:48:26.573Z,73.94
2022-12-16T19:51:19.847Z,73.30
2022-12-16T19:54:06.279Z,73.57
2022-12-16T19:56:52.513Z,73.63
2022-12-16T19:59:40.611Z,73.88
2022-12-16T20:02:29.841Z,73.81
2022-12-16T20:05:15.537Z,73.72
2022-12-16T20:08:00.945Z,73.51
2022-12-16T20:10:46.261Z,73.47
2022-12-16T20:13:32.335Z,73.35
2022-12-16T20:16:26.352Z,73.53
2022-12-16T20:19:12.291Z,73.44
2022-12-16T20:22:00.693Z,73.21
2022-12-16T20:24:49.844Z,73.06
2022-12-16T20:27:35.107Z,73.40
2022-12-16T20:30:20.583Z,73.54
2022-12-16T20:33:06.445Z,73.34
2022-12-16T20:35:51.699Z,73.46
2022-12-16T20:38:37.132Z,73.76
2022-12-16T20:41:23.551Z,73.53
2022-12-16T20:44:09.682Z,73.59
2022-12-16T20:46:56.537Z,73.40
2022-12-16T20:49:42.396Z,73.56
2022-12-16T20:52:28.461Z,73.45
2022-12-16T20:55:14.374Z,73.65
2022-12-16T20:57:59.593Z,73.19
2022-12-16T21:00:45.085Z,73.63
2022-12-16T21:03:30.441Z,73.25
2022-12-16T21:06:16.016Z,73.35
2022-12-16T21:09:01.589Z,73.14
2022-12-16T21:11:47.506Z,73.24
2022-12-16T21:14:32.928Z,73.12
2022-12-16T21:17:18.010Z,72.93
2022-12-16T21:20:03.418Z,72.60
2022-12-16T21:22:48.478Z,72.76
2022-12-16T21:25:34.069Z,72.73
2022-12-16T21:28:19.610Z,72.73
2022-12-16T21:31:06.996Z,72.89
2022-12-16T21:33:52.510Z,72.99
2022-12-16T21:36:38.108Z,72.58
2022-12-16T21:39:23.554Z,72.77
2022-12-16T21:42:08.969Z,72.48
2022-12-16T21:44:56.325Z,72.45
2022-12-16T21:47:42.281Z,72.51
2022-12-16T21:50:28.426Z,72.41
2022-12-16T21:53:13.710Z,71.87
2022-12-16T21:55:59.220Z,72.00
2022-12-16T21:58:44.545Z,72.31
2022-12-16T22:01:30.033Z,72.24
2022-12-16T22:04:15.478Z,72.25
2022-12-16T22:07:00.748Z,72.48
2022-12-16T22:09:46.119Z,72.41
2022-12-16T22:12:31.130Z,72.28
2022-12-16T22:15:16.417Z,72.26
2022-12-16T22:18:01.995Z,72.38
2022-12-16T22:20:47.499Z,72.59
2022-12-16T22:23:33.017Z,72.47
2022-12-16T22:26:20.057Z,72.38
2022-12-16T22:29:06.085Z,72.58
2022-12-16T22:31:51.437Z,72.18
2022-12-16T22:34:37.286Z,72.72
2022-12-16T22:37:22.715Z,72.03
2022-12-16T22:40:07.873Z,72.11
2022-12-16T22:42:53.325Z,71.91
2022-12-16T22:45:41.922Z,72.39
2022-12-16T22:48:29.919Z,72.65
2022-12-16T22:51:15.306Z,72.12
2022-12-16T22:54:00.968Z,72.36
2022-12-16T22:56:46.292Z,72.17
2022-12-16T22:59:31.738Z,72.34
2022-12-16T23:02:17.077Z,72.31
2022-12-16T23:05:02.598Z,72.36
2022-12-16T23:07:47.785Z,72.10
2022-12-16T23:10:33.243Z,72.25
2022-12-16T23:13:18.669Z,72.03
2022-12-16T23:16:06.672Z,72.06
2022-12-16T23:18:52.080Z,71.84
2022-12-16T23:21:38.547Z,72.02
2022-12-16T23:24:24.395Z,72.02
2022-12-16T23:27:09.959Z,71.77
2022-12-16T23:32:30.682Z,71.74
2022-12-16T23:33:00.759Z,71.71
2022-12-16T23:35:46.149Z,71.77
2022-12-16T23:38:31.673Z,71.94
2022-12-16T23:41:17.740Z,72.00
2022-12-16T23:44:03.971Z,72.12
2022-12-16T23:46:49.356Z,72.07
2022-12-16T23:49:34.645Z,71.67
2022-12-16T23:52:19.950Z,71.87
2022-12-16T23:55:05.336Z,71.62
2022-12-16T23:57:50.811Z,71.81
